sensor_id;sensor_type;location;lat;lon;timestamp;pressure;altitude;pressure_sealevel;temperature;humidity
3434;BME280;1730;41.932;25.548;2023-05-18T00:02:01;103492.75;;;14.72;100.00
3434;BME280;1730;41.932;25.548;2023-05-18T00:04:29;103478.94;;;14.76;100.00
3434;BME280;1730;41.932;25.548;2023-05-18T00:06:55;103473.97;;;14.84;100.00
3434;BME280;1730;41.932;25.548;2023-05-18T00:09:28;103427.78;;;14.67;100.00
3434;BME280;1730;41.932;25.548;2023-05-18T00:11:55;103427.38;;;14.75;100.00
3434;BME280;1730;41.932;25.548;2023-05-18T00:14:21;103412.06;;;14.74;100.00
3434;BME280;1730;41.932;25.548;2023-05-18T00:16:47;103348.13;;;14.50;100.00
3434;BME280;1730;41.932;25.548;2023-05-18T00:19:13;103366.72;;;14.74;100.00
3434;BME280;1730;41.932;25.548;2023-05-18T00:21:42;103351.00;;;14.64;100.00
3434;BME280;1730;41.932;25.548;2023-05-18T00:24:12;103329.81;;;14.53;100.00
3434;BME280;1730;41.932;25.548;2023-05-18T00:26:39;103341.97;;;14.63;100.00
3434;BME280;1730;41.932;25.548;2023-05-18T00:29:05;103323.12;;;14.60;100.00
3434;BME280;1730;41.932;25.548;2023-05-18T00:31:32;103291.09;;;14.50;100.00
3434;BME280;1730;41.932;25.548;2023-05-18T00:34:07;103273.66;;;14.54;100.00
3434;BME280;1730;41.932;25.548;2023-05-18T00:36:33;103232.47;;;14.46;100.00
3434;BME280;1730;41.932;25.548;2023-05-18T00:38:59;103201.78;;;14.26;100.00
3434;BME280;1730;41.932;25.548;2023-05-18T00:41:26;103225.84;;;14.34;100.00
3434;BME280;1730;41.932;25.548;2023-05-18T00:43:52;103227.75;;;14.32;100.00
3434;BME280;1730;41.932;25.548;2023-05-18T00:46:18;103233.34;;;14.29;100.00
3434;BME280;1730;41.932;25.548;2023-05-18T00:48:45;103176.75;;;14.04;100.00
3434;BME280;1730;41.932;25.548;2023-05-18T00:51:11;103176.63;;;14.07;100.00
3434;BME280;1730;41.932;25.548;2023-05-18T00:53:37;103123.41;;;13.70;100.00
3434;BME280;1730;41.932;25.548;2023-05-18T00:56:03;103170.41;;;13.88;100.00
3434;BME280;1730;41.932;25.548;2023-05-18T00:58:29;103197.28;;;13.92;100.00
3434;BME280;1730;41.932;25.548;2023-05-18T01:00:56;103222.66;;;13.91;100.00
3434;BME280;1730;41.932;25.548;2023-05-18T01:03:22;103261.53;;;14.09;100.00
3434;BME280;1730;41.932;25.548;2023-05-18T01:05:48;103222.06;;;13.86;100.00
3434;BME280;1730;41.932;25.548;2023-05-18T01:08:26;103238.16;;;13.89;100.00
3434;BME280;1730;41.932;25.548;2023-05-18T01:10:56;103234.31;;;13.93;100.00
3434;BME280;1730;41.932;25.548;2023-05-18T01:13:48;103207.25;;;13.75;100.00
3434;BME280;1730;41.932;25.548;2023-05-18T01:16:22;102997.66;;;12.51;100.00
3434;BME280;1730;41.932;25.548;2023-05-18T01:19:00;103188.44;;;13.54;100.00
3434;BME280;1730;41.932;25.548;2023-05-18T01:21:47;103217.09;;;13.60;100.00
3434;BME280;1730;41.932;25.548;2023-05-18T01:24:40;103243.37;;;13.58;100.00
3434;BME280;1730;41.932;25.548;2023-05-18T01:27:08;103239.13;;;13.52;100.00
3434;BME280;1730;41.932;25.548;2023-05-18T01:29:33;103245.00;;;13.62;100.00
3434;BME280;1730;41.932;25.548;2023-05-18T01:31:59;103038.59;;;12.45;100.00
3434;BME280;1730;41.932;25.548;2023-05-18T01:34:25;103230.88;;;13.56;100.00
3434;BME280;1730;41.932;25.548;2023-05-18T01:36:51;103234.44;;;13.56;100.00
3434;BME280;1730;41.932;25.548;2023-05-18T01:39:16;103153.62;;;13.09;100.00
3434;BME280;1730;41.932;25.548;2023-05-18T01:41:50;103210.66;;;13.44;100.00
3434;BME280;1730;41.932;25.548;2023-05-18T01:44:25;103179.28;;;13.21;100.00
3434;BME280;1730;41.932;25.548;2023-05-18T01:49:37;103233.06;;;13.47;100.00
3434;BME280;1730;41.932;25.548;2023-05-18T01:52:08;103252.41;;;13.59;100.00
3434;BME280;1730;41.932;25.548;2023-05-18T01:54:36;103195.00;;;13.32;100.00
3434;BME280;1730;41.932;25.548;2023-05-18T01:57:05;103246.84;;;13.79;100.00
3434;BME280;1730;41.932;25.548;2023-05-18T01:59:32;103206.63;;;13.70;100.00
3434;BME280;1730;41.932;25.548;2023-05-18T02:01:59;103192.91;;;13.56;100.00
3434;BME280;1730;41.932;25.548;2023-05-18T02:04:26;103185.06;;;13.49;100.00
3434;BME280;1730;41.932;25.548;2023-05-18T02:06:51;103190.97;;;13.58;100.00
3434;BME280;1730;41.932;25.548;2023-05-18T02:09:21;103190.69;;;13.64;100.00
3434;BME280;1730;41.932;25.548;2023-05-18T02:11:48;103182.31;;;13.68;100.00
3434;BME280;1730;41.932;25.548;2023-05-18T02:14:14;103168.66;;;13.70;100.00
3434;BME280;1730;41.932;25.548;2023-05-18T02:16:39;103107.56;;;13.45;100.00
3434;BME280;1730;41.932;25.548;2023-05-18T02:19:05;103149.97;;;13.81;100.00
3434;BME280;1730;41.932;25.548;2023-05-18T02:21:31;103107.94;;;13.72;100.00
3434;BME280;1730;41.932;25.548;2023-05-18T02:23:58;103133.84;;;13.95;100.00
3434;BME280;1730;41.932;25.548;2023-05-18T02:26:24;103088.22;;;13.86;100.00
3434;BME280;1730;41.932;25.548;2023-05-18T02:28:50;103085.78;;;13.97;100.00
3434;BME280;1730;41.932;25.548;2023-05-18T02:31:16;103091.59;;;14.07;100.00
3434;BME280;1730;41.932;25.548;2023-05-18T02:33:41;103092.38;;;14.09;100.00
3434;BME280;1730;41.932;25.548;2023-05-18T02:36:11;103096.16;;;14.22;100.00
3434;BME280;1730;41.932;25.548;2023-05-18T02:38:41;103102.06;;;14.30;100.00
3434;BME280;1730;41.932;25.548;2023-05-18T02:41:08;103095.50;;;14.34;100.00
3434;BME280;1730;41.932;25.548;2023-05-18T02:43:34;103081.78;;;14.37;100.00
3434;BME280;1730;41.932;25.548;2023-05-18T02:46:00;103067.00;;;14.42;100.00
3434;BME280;1730;41.932;25.548;2023-05-18T02:48:26;103071.66;;;14.56;100.00
3434;BME280;1730;41.932;25.548;2023-05-18T02:50:52;103061.03;;;14.67;100.00
3434;BME280;1730;41.932;25.548;2023-05-18T02:53:18;103025.09;;;14.62;100.00
3434;BME280;1730;41.932;25.548;2023-05-18T02:55:45;103003.19;;;14.65;100.00
3434;BME280;1730;41.932;25.548;2023-05-18T02:58:11;102970.97;;;14.59;100.00
3434;BME280;1730;41.932;25.548;2023-05-18T03:00:38;102970.28;;;14.56;100.00
3434;BME280;1730;41.932;25.548;2023-05-18T03:03:04;102966.94;;;14.51;100.00
3434;BME280;1730;41.932;25.548;2023-05-18T03:05:30;102980.19;;;14.57;100.00
3434;BME280;1730;41.932;25.548;2023-05-18T03:07:55;102967.44;;;14.57;100.00
3434;BME280;1730;41.932;25.548;2023-05-18T03:10:21;102941.81;;;14.47;100.00
3434;BME280;1730;41.932;25.548;2023-05-18T03:12:47;102879.25;;;14.17;100.00
3434;BME280;1730;41.932;25.548;2023-05-18T03:15:13;102955.81;;;14.55;100.00
3434;BME280;1730;41.932;25.548;2023-05-18T03:17:43;102959.66;;;14.51;100.00
3434;BME280;1730;41.932;25.548;2023-05-18T03:20:09;102968.84;;;14.49;100.00
3434;BME280;1730;41.932;25.548;2023-05-18T03:22:41;102987.34;;;14.58;100.00
3434;BME280;1730;41.932;25.548;2023-05-18T03:25:07;103018.09;;;14.58;100.00
3434;BME280;1730;41.932;25.548;2023-05-18T03:27:33;103038.16;;;14.56;100.00
3434;BME280;1730;41.932;25.548;2023-05-18T03:29:58;102916.41;;;13.70;100.00
3434;BME280;1730;41.932;25.548;2023-05-18T03:32:24;103131.66;;;14.67;100.00
3434;BME280;1730;41.932;25.548;2023-05-18T03:34:51;103177.94;;;14.81;100.00
3434;BME280;1730;41.932;25.548;2023-05-18T03:37:17;103151.19;;;14.58;100.00
3434;BME280;1730;41.932;25.548;2023-05-18T03:39:42;103195.03;;;14.83;100.00
3434;BME280;1730;41.932;25.548;2023-05-18T03:42:08;103179.22;;;14.74;100.00
3434;BME280;1730;41.932;25.548;2023-05-18T03:44:34;103187.31;;;14.76;100.00
3434;BME280;1730;41.932;25.548;2023-05-18T03:46:59;103192.16;;;14.86;100.00
3434;BME280;1730;41.932;25.548;2023-05-18T03:49:25;103205.22;;;14.96;100.00
3434;BME280;1730;41.932;25.548;2023-05-18T03:51:50;102948.41;;;13.63;100.00
3434;BME280;1730;41.932;25.548;2023-05-18T03:54:18;103120.53;;;14.72;100.00
3434;BME280;1730;41.932;25.548;2023-05-18T03:56:45;103131.37;;;14.87;100.00
3434;BME280;1730;41.932;25.548;2023-05-18T03:59:11;103117.38;;;14.79;100.00
3434;BME280;1730;41.932;25.548;2023-05-18T04:01:37;103144.91;;;15.05;100.00
3434;BME280;1730;41.932;25.548;2023-05-18T04:04:07;103153.81;;;15.22;100.00
3434;BME280;1730;41.932;25.548;2023-05-18T04:06:33;102998.38;;;14.55;100.00
3434;BME280;1730;41.932;25.548;2023-05-18T04:09:00;103122.41;;;15.62;100.00
3434;BME280;1730;41.932;25.548;2023-05-18T04:11:29;103124.72;;;15.98;100.00
3434;BME280;1730;41.932;25.548;2023-05-18T04:13:55;103050.91;;;16.03;100.00
3434;BME280;1730;41.932;25.548;2023-05-18T04:16:23;103014.09;;;16.38;100.00
3434;BME280;1730;41.932;25.548;2023-05-18T04:18:48;102914.66;;;16.45;100.00
3434;BME280;1730;41.932;25.548;2023-05-18T04:21:14;102795.50;;;16.61;100.00
3434;BME280;1730;41.932;25.548;2023-05-18T04:23:41;102654.09;;;16.57;100.00
3434;BME280;1730;41.932;25.548;2023-05-18T04:26:06;102486.72;;;16.12;100.00
3434;BME280;1730;41.932;25.548;2023-05-18T04:28:33;102462.47;;;16.33;100.00
3434;BME280;1730;41.932;25.548;2023-05-18T04:30:59;102417.50;;;16.51;100.00
3434;BME280;1730;41.932;25.548;2023-05-18T04:33:27;102378.31;;;16.88;100.00
3434;BME280;1730;41.932;25.548;2023-05-18T04:35:53;102277.31;;;17.01;100.00
3434;BME280;1730;41.932;25.548;2023-05-18T04:38:24;102122.06;;;16.88;100.00
3434;BME280;1730;41.932;25.548;2023-05-18T04:40:49;102020.63;;;16.74;100.00
3434;BME280;1730;41.932;25.548;2023-05-18T04:43:16;101975.56;;;17.01;100.00
3434;BME280;1730;41.932;25.548;2023-05-18T04:45:44;101867.84;;;16.86;100.00
3434;BME280;1730;41.932;25.548;2023-05-18T04:48:15;101748.63;;;16.26;100.00
3434;BME280;1730;41.932;25.548;2023-05-18T04:50:42;101815.88;;;16.57;100.00
3434;BME280;1730;41.932;25.548;2023-05-18T04:53:07;101836.41;;;16.61;100.00
3434;BME280;1730;41.932;25.548;2023-05-18T04:55:33;101855.00;;;16.77;100.00
3434;BME280;1730;41.932;25.548;2023-05-18T04:57:59;101814.50;;;16.52;100.00
3434;BME280;1730;41.932;25.548;2023-05-18T05:00:26;101828.44;;;16.70;100.00
3434;BME280;1730;41.932;25.548;2023-05-18T05:02:54;101838.44;;;16.69;100.00
3434;BME280;1730;41.932;25.548;2023-05-18T05:05:21;101820.66;;;16.65;100.00
3434;BME280;1730;41.932;25.548;2023-05-18T05:07:48;101799.59;;;16.56;100.00
3434;BME280;1730;41.932;25.548;2023-05-18T05:10:15;101755.94;;;16.46;100.00
3434;BME280;1730;41.932;25.548;2023-05-18T05:12:41;101708.97;;;16.33;100.00
3434;BME280;1730;41.932;25.548;2023-05-18T05:15:07;101719.25;;;16.61;100.00
3434;BME280;1730;41.932;25.548;2023-05-18T05:17:33;101557.62;;;15.59;100.00
3434;BME280;1730;41.932;25.548;2023-05-18T05:19:59;101701.91;;;16.62;100.00
3434;BME280;1730;41.932;25.548;2023-05-18T05:22:24;101727.44;;;16.92;100.00
3434;BME280;1730;41.932;25.548;2023-05-18T05:24:50;101689.25;;;16.82;100.00
3434;BME280;1730;41.932;25.548;2023-05-18T05:27:16;101641.59;;;16.77;100.00
3434;BME280;1730;41.932;25.548;2023-05-18T05:29:44;101567.12;;;16.36;100.00
3434;BME280;1730;41.932;25.548;2023-05-18T05:32:10;101642.31;;;17.19;100.00
3434;BME280;1730;41.932;25.548;2023-05-18T05:34:38;101546.88;;;17.09;100.00
3434;BME280;1730;41.932;25.548;2023-05-18T05:37:04;101412.13;;;16.73;100.00
3434;BME280;1730;41.932;25.548;2023-05-18T05:39:30;101332.69;;;16.68;100.00
3434;BME280;1730;41.932;25.548;2023-05-18T05:41:55;101313.19;;;16.82;100.00
3434;BME280;1730;41.932;25.548;2023-05-18T05:44:21;101212.13;;;17.03;100.00
3434;BME280;1730;41.932;25.548;2023-05-18T05:46:47;101189.63;;;17.01;100.00
3434;BME280;1730;41.932;25.548;2023-05-18T05:49:13;101097.38;;;16.79;100.00
3434;BME280;1730;41.932;25.548;2023-05-18T05:51:38;101145.91;;;17.20;100.00
3434;BME280;1730;41.932;25.548;2023-05-18T05:54:03;101115.63;;;17.23;100.00
3434;BME280;1730;41.932;25.548;2023-05-18T05:56:29;101035.62;;;17.32;100.00
3434;BME280;1730;41.932;25.548;2023-05-18T05:58:54;100940.50;;;16.94;100.00
3434;BME280;1730;41.932;25.548;2023-05-18T06:01:20;100915.16;;;16.93;100.00
3434;BME280;1730;41.932;25.548;2023-05-18T06:03:45;100978.84;;;17.10;100.00
3434;BME280;1730;41.932;25.548;2023-05-18T06:06:13;101015.97;;;17.64;100.00
3434;BME280;1730;41.932;25.548;2023-05-18T06:08:39;100897.03;;;17.28;100.00
3434;BME280;1730;41.932;25.548;2023-05-18T06:11:05;100892.13;;;17.31;100.00
3434;BME280;1730;41.932;25.548;2023-05-18T06:13:30;100813.81;;;17.75;100.00
3434;BME280;1730;41.932;25.548;2023-05-18T06:15:56;100741.91;;;17.50;100.00
3434;BME280;1730;41.932;25.548;2023-05-18T06:18:22;100736.94;;;17.88;100.00
3434;BME280;1730;41.932;25.548;2023-05-18T06:20:48;100672.00;;;18.08;100.00
3434;BME280;1730;41.932;25.548;2023-05-18T06:23:14;100657.50;;;18.64;100.00
3434;BME280;1730;41.932;25.548;2023-05-18T06:25:39;100561.06;;;18.94;100.00
3434;BME280;1730;41.932;25.548;2023-05-18T06:28:05;100452.12;;;19.28;100.00
3434;BME280;1730;41.932;25.548;2023-05-18T06:30:31;100304.81;;;18.88;100.00
3434;BME280;1730;41.932;25.548;2023-05-18T06:32:56;100152.78;;;18.87;100.00
3434;BME280;1730;41.932;25.548;2023-05-18T06:35:22;100058.25;;;18.92;100.00
3434;BME280;1730;41.932;25.548;2023-05-18T06:37:49;100028.22;;;19.14;100.00
3434;BME280;1730;41.932;25.548;2023-05-18T06:40:14;99979.69;;;19.16;100.00
3434;BME280;1730;41.932;25.548;2023-05-18T06:42:40;99969.78;;;19.36;100.00
3434;BME280;1730;41.932;25.548;2023-05-18T06:45:06;99859.97;;;19.88;100.00
3434;BME280;1730;41.932;25.548;2023-05-18T06:47:31;99697.72;;;19.60;100.00
3434;BME280;1730;41.932;25.548;2023-05-18T06:49:57;99613.03;;;19.45;100.00
3434;BME280;1730;41.932;25.548;2023-05-18T06:52:23;99611.47;;;19.84;100.00
3434;BME280;1730;41.932;25.548;2023-05-18T06:54:48;99441.94;;;18.69;100.00
3434;BME280;1730;41.932;25.548;2023-05-18T06:57:14;99504.13;;;19.14;100.00
3434;BME280;1730;41.932;25.548;2023-05-18T06:59:39;99542.03;;;19.17;100.00
3434;BME280;1730;41.932;25.548;2023-05-18T07:02:05;99525.88;;;19.35;100.00
3434;BME280;1730;41.932;25.548;2023-05-18T07:04:31;99498.59;;;18.95;100.00
3434;BME280;1730;41.932;25.548;2023-05-18T07:06:56;99554.66;;;18.77;100.00
3434;BME280;1730;41.932;25.548;2023-05-18T07:09:22;99582.25;;;18.96;100.00
3434;BME280;1730;41.932;25.548;2023-05-18T07:11:48;99554.19;;;18.46;100.00
3434;BME280;1730;41.932;25.548;2023-05-18T07:14:13;99490.22;;;18.62;100.00
3434;BME280;1730;41.932;25.548;2023-05-18T07:16:39;99515.19;;;18.93;100.00
3434;BME280;1730;41.932;25.548;2023-05-18T07:19:05;99381.72;;;18.97;100.00
3434;BME280;1730;41.932;25.548;2023-05-18T07:21:30;99451.19;;;19.35;100.00
3434;BME280;1730;41.932;25.548;2023-05-18T07:23:56;99451.87;;;19.50;100.00
3434;BME280;1730;41.932;25.548;2023-05-18T07:26:22;99397.81;;;19.46;100.00
3434;BME280;1730;41.932;25.548;2023-05-18T07:28:49;99370.00;;;19.88;100.00
3434;BME280;1730;41.932;25.548;2023-05-18T07:31:15;99241.06;;;19.39;100.00
3434;BME280;1730;41.932;25.548;2023-05-18T07:33:43;99249.00;;;19.66;100.00
3434;BME280;1730;41.932;25.548;2023-05-18T07:36:08;99081.53;;;18.80;100.00
3434;BME280;1730;41.932;25.548;2023-05-18T07:38:34;99131.47;;;19.33;100.00
3434;BME280;1730;41.932;25.548;2023-05-18T07:41:00;99193.94;;;20.01;100.00
3434;BME280;1730;41.932;25.548;2023-05-18T07:43:25;99158.25;;;20.52;100.00
3434;BME280;1730;41.932;25.548;2023-05-18T07:45:51;99083.91;;;19.86;100.00
3434;BME280;1730;41.932;25.548;2023-05-18T07:48:16;99105.00;;;19.78;100.00
3434;BME280;1730;41.932;25.548;2023-05-18T07:50:42;99085.97;;;20.21;100.00
3434;BME280;1730;41.932;25.548;2023-05-18T07:53:07;99065.97;;;20.21;100.00
3434;BME280;1730;41.932;25.548;2023-05-18T07:55:33;99048.66;;;20.27;100.00
3434;BME280;1730;41.932;25.548;2023-05-18T07:57:58;99042.63;;;19.56;100.00
3434;BME280;1730;41.932;25.548;2023-05-18T08:00:27;99035.22;;;19.94;100.00
3434;BME280;1730;41.932;25.548;2023-05-18T08:02:52;99033.44;;;19.75;100.00
3434;BME280;1730;41.932;25.548;2023-05-18T08:05:18;99042.00;;;19.41;100.00
3434;BME280;1730;41.932;25.548;2023-05-18T08:08:36;99016.59;;;20.27;100.00
3434;BME280;1730;41.932;25.548;2023-05-18T08:11:03;99008.53;;;20.39;100.00
3434;BME280;1730;41.932;25.548;2023-05-18T08:13:38;98995.81;;;20.20;100.00
3434;BME280;1730;41.932;25.548;2023-05-18T08:16:04;99006.28;;;20.54;100.00
3434;BME280;1730;41.932;25.548;2023-05-18T08:18:29;99006.69;;;20.08;100.00
3434;BME280;1730;41.932;25.548;2023-05-18T08:20:55;98291.56;;;15.73;100.00
3434;BME280;1730;41.932;25.548;2023-05-18T08:23:26;98526.81;;;17.70;100.00
3434;BME280;1730;41.932;25.548;2023-05-18T08:25:52;98970.50;;;20.49;100.00
3434;BME280;1730;41.932;25.548;2023-05-18T08:28:17;98972.13;;;20.57;100.00
3434;BME280;1730;41.932;25.548;2023-05-18T08:30:43;98990.22;;;20.58;100.00
3434;BME280;1730;41.932;25.548;2023-05-18T08:33:09;98697.44;;;18.98;100.00
3434;BME280;1730;41.932;25.548;2023-05-18T08:35:35;98441.59;;;17.05;100.00
3434;BME280;1730;41.932;25.548;2023-05-18T08:38:00;98504.00;;;17.57;100.00
3434;BME280;1730;41.932;25.548;2023-05-18T08:40:45;98563.06;;;17.32;100.00
3434;BME280;1730;41.932;25.548;2023-05-18T08:43:21;98974.22;;;20.12;100.00
3434;BME280;1730;41.932;25.548;2023-05-18T08:48:26;98952.75;;;20.09;100.00
3434;BME280;1730;41.932;25.548;2023-05-18T08:50:53;98967.59;;;20.19;100.00
3434;BME280;1730;41.932;25.548;2023-05-18T08:53:23;98958.34;;;20.82;100.00
3434;BME280;1730;41.932;25.548;2023-05-18T08:55:53;98937.47;;;20.81;100.00
3434;BME280;1730;41.932;25.548;2023-05-18T08:58:20;98921.97;;;20.56;100.00
3434;BME280;1730;41.932;25.548;2023-05-18T09:01:11;98928.97;;;20.71;100.00
3434;BME280;1730;41.932;25.548;2023-05-18T09:03:38;98914.81;;;20.74;100.00
3434;BME280;1730;41.932;25.548;2023-05-18T09:06:05;98916.41;;;20.63;100.00
3434;BME280;1730;41.932;25.548;2023-05-18T09:08:31;98801.50;;;20.13;100.00
3434;BME280;1730;41.932;25.548;2023-05-18T09:11:00;98909.25;;;20.62;100.00
3434;BME280;1730;41.932;25.548;2023-05-18T09:13:26;98804.13;;;19.65;100.00
3434;BME280;1730;41.932;25.548;2023-05-18T09:15:52;98896.03;;;20.89;100.00
3434;BME280;1730;41.932;25.548;2023-05-18T09:18:18;98919.97;;;20.63;100.00
3434;BME280;1730;41.932;25.548;2023-05-18T09:20:44;98912.44;;;20.77;100.00
3434;BME280;1730;41.932;25.548;2023-05-18T09:23:14;98833.25;;;20.39;100.00
3434;BME280;1730;41.932;25.548;2023-05-18T09:25:44;98925.44;;;21.00;100.00
3434;BME280;1730;41.932;25.548;2023-05-18T09:28:12;98918.59;;;21.39;100.00
3434;BME280;1730;41.932;25.548;2023-05-18T09:30:43;98824.41;;;20.85;100.00
3434;BME280;1730;41.932;25.548;2023-05-18T09:33:19;98870.94;;;21.22;100.00
3434;BME280;1730;41.932;25.548;2023-05-18T09:35:49;98916.97;;;21.49;100.00
3434;BME280;1730;41.932;25.548;2023-05-18T09:38:17;98925.72;;;21.10;100.00
3434;BME280;1730;41.932;25.548;2023-05-18T09:40:47;98691.66;;;19.55;100.00
3434;BME280;1730;41.932;25.548;2023-05-18T09:43:13;98922.38;;;21.38;100.00
3434;BME280;1730;41.932;25.548;2023-05-18T10:50:36;98951.75;;;20.71;100.00
3434;BME280;1730;41.932;25.548;2023-05-18T10:55:40;98961.22;;;21.05;100.00
3434;BME280;1730;41.932;25.548;2023-05-18T10:58:09;98955.63;;;21.11;100.00
3434;BME280;1730;41.932;25.548;2023-05-18T11:00:39;98950.34;;;21.17;100.00
3434;BME280;1730;41.932;25.548;2023-05-18T11:03:10;98947.25;;;21.06;100.00
3434;BME280;1730;41.932;25.548;2023-05-18T11:05:40;98910.84;;;20.69;100.00
3434;BME280;1730;41.932;25.548;2023-05-18T11:08:22;98949.97;;;20.95;100.00
3434;BME280;1730;41.932;25.548;2023-05-18T11:16:18;98950.81;;;20.95;100.00
3434;BME280;1730;41.932;25.548;2023-05-18T11:18:50;99020.16;;;20.78;100.00
3434;BME280;1730;41.932;25.548;2023-05-18T11:26:42;98967.84;;;20.43;100.00
3434;BME280;1730;41.932;25.548;2023-05-18T11:31:54;98542.56;;;17.17;100.00
3434;BME280;1730;41.932;25.548;2023-05-18T11:34:44;98965.00;;;20.06;100.00
3434;BME280;1730;41.932;25.548;2023-05-18T11:37:14;98968.94;;;20.10;100.00
3434;BME280;1730;41.932;25.548;2023-05-18T11:39:40;98961.75;;;19.91;100.00
3434;BME280;1730;41.932;25.548;2023-05-18T11:42:08;98925.59;;;20.07;100.00
3434;BME280;1730;41.932;25.548;2023-05-18T11:44:35;98968.06;;;20.59;100.00
3434;BME280;1730;41.932;25.548;2023-05-18T11:47:03;98968.19;;;20.03;100.00
3434;BME280;1730;41.932;25.548;2023-05-18T11:49:46;98971.81;;;20.47;100.00
3434;BME280;1730;41.932;25.548;2023-05-18T11:52:19;98937.34;;;19.90;100.00
3434;BME280;1730;41.932;25.548;2023-05-18T11:54:52;98985.28;;;19.99;100.00
3434;BME280;1730;41.932;25.548;2023-05-18T11:57:23;98997.09;;;19.93;100.00
3434;BME280;1730;41.932;25.548;2023-05-18T11:59:56;98995.28;;;20.11;100.00
3434;BME280;1730;41.932;25.548;2023-05-18T12:02:32;98998.69;;;19.75;100.00
3434;BME280;1730;41.932;25.548;2023-05-18T12:04:59;98989.72;;;19.68;100.00
3434;BME280;1730;41.932;25.548;2023-05-18T12:07:26;98987.34;;;19.78;100.00
3434;BME280;1730;41.932;25.548;2023-05-18T12:09:56;99008.56;;;20.08;100.00
3434;BME280;1730;41.932;25.548;2023-05-18T12:12:23;99009.69;;;20.00;100.00
3434;BME280;1730;41.932;25.548;2023-05-18T12:14:54;99004.50;;;20.17;100.00
3434;BME280;1730;41.932;25.548;2023-05-18T12:17:20;99011.34;;;19.76;100.00
3434;BME280;1730;41.932;25.548;2023-05-18T12:19:49;99034.34;;;19.69;100.00
3434;BME280;1730;41.932;25.548;2023-05-18T12:22:15;99025.81;;;19.52;100.00
3434;BME280;1730;41.932;25.548;2023-05-18T12:24:43;99029.53;;;19.58;100.00
3434;BME280;1730;41.932;25.548;2023-05-18T12:27:11;99061.59;;;19.37;100.00
3434;BME280;1730;41.932;25.548;2023-05-18T12:29:39;99041.50;;;19.70;100.00
3434;BME280;1730;41.932;25.548;2023-05-18T12:32:09;99036.31;;;19.49;100.00
3434;BME280;1730;41.932;25.548;2023-05-18T12:34:36;99040.22;;;19.66;100.00
3434;BME280;1730;41.932;25.548;2023-05-18T12:37:05;99040.97;;;19.79;100.00
3434;BME280;1730;41.932;25.548;2023-05-18T12:39:33;99027.91;;;19.50;100.00
3434;BME280;1730;41.932;25.548;2023-05-18T12:42:10;99032.44;;;19.25;100.00
3434;BME280;1730;41.932;25.548;2023-05-18T12:44:37;98948.16;;;18.51;100.00
3434;BME280;1730;41.932;25.548;2023-05-18T12:47:03;99019.75;;;18.79;100.00
3434;BME280;1730;41.932;25.548;2023-05-18T12:49:35;98996.72;;;18.56;100.00
3434;BME280;1730;41.932;25.548;2023-05-18T12:52:10;99070.59;;;18.87;100.00
3434;BME280;1730;41.932;25.548;2023-05-18T12:54:55;99083.62;;;18.85;100.00
3434;BME280;1730;41.932;25.548;2023-05-18T12:59:55;99069.34;;;18.83;100.00
3434;BME280;1730;41.932;25.548;2023-05-18T13:05:10;99067.44;;;18.83;100.00
3434;BME280;1730;41.932;25.548;2023-05-18T13:07:37;98962.25;;;18.55;100.00
3434;BME280;1730;41.932;25.548;2023-05-18T13:10:09;98906.44;;;18.18;100.00
3434;BME280;1730;41.932;25.548;2023-05-18T13:12:39;99056.53;;;18.90;100.00
3434;BME280;1730;41.932;25.548;2023-05-18T13:15:19;99133.03;;;18.90;100.00
3434;BME280;1730;41.932;25.548;2023-05-18T13:20:16;99055.66;;;18.89;100.00
3434;BME280;1730;41.932;25.548;2023-05-18T13:22:42;99025.87;;;18.48;100.00
3434;BME280;1730;41.932;25.548;2023-05-18T13:25:09;99051.75;;;18.53;100.00
3434;BME280;1730;41.932;25.548;2023-05-18T13:27:34;98955.78;;;18.10;100.00
3434;BME280;1730;41.932;25.548;2023-05-18T13:30:00;99050.69;;;18.60;100.00
3434;BME280;1730;41.932;25.548;2023-05-18T13:32:26;99049.19;;;18.77;100.00
3434;BME280;1730;41.932;25.548;2023-05-18T13:34:51;98960.41;;;18.16;100.00
3434;BME280;1730;41.932;25.548;2023-05-18T13:37:18;99043.25;;;18.94;100.00
3434;BME280;1730;41.932;25.548;2023-05-18T13:39:44;99027.63;;;19.14;100.00
3434;BME280;1730;41.932;25.548;2023-05-18T13:42:10;99044.53;;;18.84;100.00
3434;BME280;1730;41.932;25.548;2023-05-18T13:44:36;99052.41;;;19.19;100.00
3434;BME280;1730;41.932;25.548;2023-05-18T13:47:02;99043.56;;;19.23;100.00
3434;BME280;1730;41.932;25.548;2023-05-18T13:49:27;99072.00;;;19.09;100.00
3434;BME280;1730;41.932;25.548;2023-05-18T13:51:53;98938.28;;;18.43;100.00
3434;BME280;1730;41.932;25.548;2023-05-18T13:54:18;99047.84;;;19.06;100.00
3434;BME280;1730;41.932;25.548;2023-05-18T13:56:44;98861.72;;;18.19;100.00
3434;BME280;1730;41.932;25.548;2023-05-18T13:59:10;99040.78;;;19.36;100.00
3434;BME280;1730;41.932;25.548;2023-05-18T14:01:35;99034.81;;;19.02;100.00
3434;BME280;1730;41.932;25.548;2023-05-18T14:04:01;99031.00;;;19.16;100.00
3434;BME280;1730;41.932;25.548;2023-05-18T14:06:27;99035.63;;;19.15;100.00
3434;BME280;1730;41.932;25.548;2023-05-18T14:08:52;99034.56;;;19.16;100.00
3434;BME280;1730;41.932;25.548;2023-05-18T14:11:18;99010.28;;;19.33;100.00
3434;BME280;1730;41.932;25.548;2023-05-18T14:13:45;98739.94;;;17.53;100.00
3434;BME280;1730;41.932;25.548;2023-05-18T14:16:10;99013.31;;;19.18;100.00
3434;BME280;1730;41.932;25.548;2023-05-18T14:18:36;98972.09;;;18.62;100.00
3434;BME280;1730;41.932;25.548;2023-05-18T14:21:01;99028.72;;;19.06;100.00
3434;BME280;1730;41.932;25.548;2023-05-18T14:23:29;99021.56;;;19.05;100.00
3434;BME280;1730;41.932;25.548;2023-05-18T14:28:42;98598.16;;;16.04;100.00
3434;BME280;1730;41.932;25.548;2023-05-18T14:31:07;98906.25;;;18.06;100.00
3434;BME280;1730;41.932;25.548;2023-05-18T14:36:08;99031.09;;;18.83;100.00
3434;BME280;1730;41.932;25.548;2023-05-18T14:38:33;99024.13;;;18.87;100.00